Time;durP1;ratioP1;P1;durP2;ratioP2;P2;SDS_P1;SDS_P2;PMS_P1;PMS_P2;Temp;Humidity;BMP_temperature;BMP_pressure;BME280_temperature;BME280_humidity;BME280_pressure;Samples;Min_cycle;Max_cycle;Signal;HPM_P1;HPM_P2
2021/03/12 00:00:42;;;;;;;27.60;16.58;;;6.00;46.90;;;;;;5027432;28;20032;-71
2021/03/12 00:03:10;;;;;;;29.10;15.77;;;6.00;47.10;;;;;;5028248;28;20575;-71
2021/03/12 00:05:46;;;;;;;29.88;17.40;;;6.00;47.50;;;;;;5027471;28;20026;-70
2021/03/12 00:08:13;;;;;;;35.33;16.67;;;5.90;47.50;;;;;;5028417;28;20095;-70
2021/03/12 00:10:39;;;;;;;29.77;15.80;;;6.00;47.70;;;;;;5027819;28;20162;-70
2021/03/12 00:13:04;;;;;;;;;;;6.00;47.80;;;;;;5028635;28;20036;-70
2021/03/12 00:15:30;;;;;;;29.15;15.73;;;6.00;47.40;;;;;;5028513;28;19913;-71
2021/03/12 00:17:56;;;;;;;;;;;6.00;47.70;;;;;;5028976;28;20060;-69
2021/03/12 00:20:29;;;;;;;27.30;16.13;;;6.00;47.70;;;;;;5028081;28;19909;-71
2021/03/12 00:22:55;;;;;;;38.80;17.80;;;6.00;47.80;;;;;;5027876;28;20053;-71
2021/03/12 00:25:40;;;;;;;31.63;17.38;;;5.90;48.00;;;;;;5028051;28;20470;-71
2021/03/12 00:28:07;;;;;;;33.25;16.40;;;6.00;47.70;;;;;;5027826;28;20044;-71
2021/03/12 00:30:33;;;;;;;33.40;16.65;;;5.90;47.90;;;;;;5028459;28;20021;-72
2021/03/12 00:32:59;;;;;;;30.55;17.42;;;5.90;48.10;;;;;;5027525;28;20021;-71
2021/03/12 00:35:25;;;;;;;28.73;15.75;;;5.90;48.30;;;;;;5028056;28;20056;-70
2021/03/12 00:37:51;;;;;;;;;;;5.80;48.30;;;;;;5027729;28;20522;-71
2021/03/12 00:40:20;;;;;;;30.13;15.07;;;5.80;48.20;;;;;;5027347;28;19913;-71
2021/03/12 00:42:46;;;;;;;34.00;16.45;;;5.80;48.30;;;;;;5027600;28;20490;-70
2021/03/12 00:45:14;;;;;;;38.97;17.77;;;5.80;48.20;;;;;;5027618;28;20112;-70
2021/03/12 00:47:41;;;;;;;28.45;15.50;;;5.80;48.70;;;;;;5027694;28;20034;-70
2021/03/12 00:50:07;;;;;;;26.92;15.55;;;5.80;48.70;;;;;;5026371;28;20064;-71
2021/03/12 00:52:33;;;;;;;26.73;15.80;;;5.80;48.80;;;;;;5026094;28;20030;-71
2021/03/12 00:54:59;;;;;;;25.48;15.30;;;5.80;48.80;;;;;;5027816;28;20136;-69
2021/03/12 00:57:24;;;;;;;;;;;5.80;49.10;;;;;;5028282;28;20045;-70
2021/03/12 00:59:50;;;;;;;26.02;15.05;;;5.70;49.70;;;;;;5027816;28;19950;-70
2021/03/12 01:02:15;;;;;;;31.42;16.20;;;5.70;49.40;;;;;;5027253;28;20029;-71
2021/03/12 01:04:41;;;;;;;30.77;17.13;;;5.70;49.70;;;;;;5026323;28;20038;-70
2021/03/12 01:07:07;;;;;;;;;;;5.70;50.20;;;;;;5027640;28;20045;-70
2021/03/12 01:09:32;;;;;;;32.70;18.02;;;5.70;52.30;;;;;;5027478;28;19912;-70
2021/03/12 01:11:58;;;;;;;;;;;5.70;52.10;;;;;;5027390;28;20029;-71
2021/03/12 01:14:24;;;;;;;32.95;19.48;;;5.60;52.20;;;;;;5027531;28;19905;-71
2021/03/12 01:16:52;;;;;;;;;;;5.60;52.00;;;;;;5027517;28;20847;-71
2021/03/12 01:19:18;;;;;;;36.47;19.65;;;5.60;51.10;;;;;;5027132;28;19905;-70
2021/03/12 01:21:44;;;;;;;40.70;17.88;;;5.70;50.70;;;;;;5025367;28;20057;-71
2021/03/12 01:24:10;;;;;;;;;;;5.70;51.60;;;;;;5027401;28;20038;-70
2021/03/12 01:26:37;;;;;;;40.20;17.77;;;5.70;52.50;;;;;;5025882;28;19913;-71
2021/03/12 01:29:02;;;;;;;;;;;5.70;53.00;;;;;;5026230;28;20278;-71
2021/03/12 01:31:28;;;;;;;32.38;16.55;;;5.60;53.90;;;;;;5026920;28;19909;-70
2021/03/12 01:33:53;;;;;;;;;;;5.60;55.10;;;;;;5025909;28;20022;-70
2021/03/12 01:36:19;;;;;;;31.38;16.92;;;5.50;58.20;;;;;;5026635;28;19917;-71
2021/03/12 01:38:45;;;;;;;29.65;17.60;;;5.50;58.00;;;;;;5026693;28;20405;-70
2021/03/12 01:41:10;;;;;;;32.03;18.75;;;5.50;59.40;;;;;;5026724;28;20163;-70
2021/03/12 01:43:36;;;;;;;36.97;19.80;;;5.30;60.50;;;;;;5027018;28;20115;-70
2021/03/12 01:46:02;;;;;;;30.45;17.08;;;5.30;63.60;;;;;;5026933;28;20473;-70
2021/03/12 01:48:27;;;;;;;35.42;20.20;;;5.20;64.40;;;;;;5026367;28;20084;-70
2021/03/12 01:50:54;;;;;;;;;;;5.10;65.40;;;;;;5025904;28;20048;-71
2021/03/12 01:53:21;;;;;;;33.08;21.17;;;5.10;67.50;;;;;;5026051;28;19948;-70
2021/03/12 01:55:47;;;;;;;31.55;18.42;;;5.00;67.90;;;;;;5031756;28;20134;-70
2021/03/12 01:58:13;;;;;;;;;;;4.90;69.90;;;;;;5046675;28;20041;-71
2021/03/12 02:00:39;;;;;;;40.13;22.27;;;4.80;70.40;;;;;;5036328;28;19928;-71
2021/03/12 02:03:06;;;;;;;;;;;4.60;72.60;;;;;;5033592;28;20036;-70
2021/03/12 02:05:33;;;;;;;36.35;21.08;;;4.50;73.50;;;;;;5026293;28;20300;-71
2021/03/12 02:07:59;;;;;;;37.65;21.70;;;4.40;74.60;;;;;;5026156;28;20029;-67
2021/03/12 02:10:27;;;;;;;39.42;22.83;;;4.30;76.20;;;;;;5025171;28;20438;-69
2021/03/12 02:13:01;;;;;;;48.67;24.60;;;4.20;77.80;;;;;;5024494;28;20112;-70
2021/03/12 02:15:32;;;;;;;42.33;22.55;;;4.10;78.40;;;;;;5026330;28;20029;-71
2021/03/12 02:18:05;;;;;;;33.72;21.75;;;3.90;79.30;;;;;;5026378;28;20112;-71
2021/03/12 02:20:43;;;;;;;36.92;21.33;;;3.90;81.00;;;;;;5026449;28;20022;-71
2021/03/12 02:23:16;;;;;;;44.42;23.63;;;3.70;81.50;;;;;;5025092;28;20416;-72
2021/03/12 02:25:47;;;;;;;43.50;24.63;;;3.60;82.50;;;;;;5025056;28;20038;-72
2021/03/12 02:28:13;;;;;;;44.35;25.33;;;3.40;83.80;;;;;;5026303;28;20033;-71
2021/03/12 02:30:39;;;;;;;46.78;25.05;;;3.30;84.90;;;;;;5024644;28;20029;-71
2021/03/12 02:33:05;;;;;;;42.33;24.90;;;3.20;85.90;;;;;;5025718;28;20112;-71
2021/03/12 02:35:32;;;;;;;;;;;3.10;86.00;;;;;;5025158;28;20637;-71
2021/03/12 02:37:59;;;;;;;39.00;24.52;;;3.10;87.00;;;;;;5025406;28;20043;-70
2021/03/12 02:40:25;;;;;;;51.20;27.27;;;3.00;87.60;;;;;;5024520;28;20030;-71
2021/03/12 02:42:51;;;;;;;46.45;26.50;;;3.00;87.40;;;;;;5025861;28;20371;-71
2021/03/12 02:45:18;;;;;;;;;;;2.90;88.80;;;;;;5026756;28;20516;-71
2021/03/12 02:47:44;;;;;;;;;;;2.90;89.20;;;;;;5026342;28;20436;-70
2021/03/12 02:50:11;;;;;;;52.08;27.65;;;2.80;89.10;;;;;;5026233;28;19917;-71
2021/03/12 02:52:38;;;;;;;52.88;26.88;;;2.60;90.00;;;;;;5023480;28;20112;-70
2021/03/12 02:55:05;;;;;;;42.03;26.08;;;2.50;90.20;;;;;;5024581;28;20636;-71
2021/03/12 02:57:31;;;;;;;50.90;28.35;;;2.50;90.40;;;;;;5024118;28;20033;-70
2021/03/12 02:59:57;;;;;;;;;;;2.40;90.50;;;;;;5025952;28;20510;-70
2021/03/12 03:02:27;;;;;;;52.42;27.17;;;2.30;90.60;;;;;;5025885;28;19909;-71
2021/03/12 03:04:55;;;;;;;44.15;26.77;;;2.40;91.00;;;;;;5027513;28;20104;-71
2021/03/12 03:07:22;;;;;;;51.08;30.27;;;2.40;90.70;;;;;;5029347;28;20453;-71
2021/03/12 03:09:49;;;;;;;47.22;29.40;;;2.50;90.80;;;;;;5029596;28;20056;-71
2021/03/12 03:12:19;;;;;;;49.80;26.70;;;2.50;90.70;;;;;;5029761;28;20029;-71
2021/03/12 03:15:05;;;;;;;46.83;26.52;;;2.60;90.90;;;;;;5029815;28;20033;-70
2021/03/12 03:17:34;;;;;;;51.17;29.55;;;2.70;90.20;;;;;;5027916;28;20041;-71
2021/03/12 03:20:00;;;;;;;50.67;28.95;;;2.60;90.20;;;;;;5029207;28;20041;-71
2021/03/12 03:22:26;;;;;;;;;;;2.50;90.60;;;;;;5028363;28;20441;-71
2021/03/12 03:24:53;;;;;;;55.25;30.30;;;2.40;90.90;;;;;;5028590;28;19911;-71
2021/03/12 03:27:19;;;;;;;52.78;28.75;;;2.50;90.80;;;;;;5028968;28;20048;-70
2021/03/12 03:29:45;;;;;;;;;;;2.60;91.00;;;;;;5028530;28;20068;-70
2021/03/12 03:32:12;;;;;;;51.33;27.80;;;2.60;90.60;;;;;;5029337;28;19916;-70
2021/03/12 03:34:37;;;;;;;47.13;28.65;;;2.70;90.80;;;;;;5027678;28;20052;-70
2021/03/12 03:37:03;;;;;;;;;;;2.60;90.60;;;;;;5029155;28;20049;-71
2021/03/12 03:39:28;;;;;;;60.58;31.70;;;2.60;90.80;;;;;;5028800;28;19967;-70
2021/03/12 03:41:55;;;;;;;;;;;2.50;90.90;;;;;;5028396;28;20469;-71
2021/03/12 03:44:25;;;;;;;58.38;33.15;;;2.50;91.00;;;;;;5028856;28;20066;-70
2021/03/12 03:46:54;;;;;;;60.92;32.85;;;2.50;91.20;;;;;;5028662;28;20038;-71
2021/03/12 03:49:20;;;;;;;54.60;32.00;;;2.40;91.10;;;;;;5029064;28;20052;-70
2021/03/12 03:51:46;;;;;;;56.00;33.65;;;2.50;91.10;;;;;;5028647;28;20037;-70
2021/03/12 03:54:13;;;;;;;;;;;2.60;91.30;;;;;;5029394;28;20052;-71
2021/03/12 03:56:40;;;;;;;47.63;28.37;;;2.60;91.30;;;;;;5028898;28;19917;-71
2021/03/12 03:59:06;;;;;;;48.92;28.20;;;2.60;91.20;;;;;;5027244;28;20033;-71
2021/03/12 04:01:34;;;;;;;51.05;29.33;;;2.70;91.30;;;;;;5027159;28;20033;-70
2021/03/12 04:04:00;;;;;;;46.67;28.52;;;2.70;91.30;;;;;;5027698;28;20033;-71
2021/03/12 04:06:29;;;;;;;48.45;29.80;;;2.70;91.40;;;;;;5027018;28;20033;-71
2021/03/12 04:09:00;;;;;;;53.45;30.92;;;2.70;91.40;;;;;;5027510;28;20261;-70
2021/03/12 04:11:28;;;;;;;46.97;28.80;;;2.80;91.30;;;;;;5028196;28;20056;-71
2021/03/12 04:13:55;;;;;;;48.83;29.13;;;2.80;91.20;;;;;;5028721;28;20395;-71
2021/03/12 04:16:21;;;;;;;55.30;31.70;;;2.80;91.10;;;;;;5027895;28;20087;-71
2021/03/12 04:18:47;;;;;;;;;;;2.80;91.30;;;;;;5027621;28;20124;-71
2021/03/12 04:21:13;;;;;;;55.80;31.40;;;2.70;91.50;;;;;;5026816;28;20374;-71
2021/03/12 04:23:40;;;;;;;56.63;30.85;;;2.80;91.20;;;;;;5026432;28;20461;-71
2021/03/12 04:26:06;;;;;;;63.33;35.30;;;2.80;91.10;;;;;;5028484;28;20034;-70
2021/03/12 04:28:32;;;;;;;62.25;36.60;;;2.80;91.10;;;;;;5028292;28;20077;-69
2021/03/12 04:31:01;;;;;;;52.58;31.83;;;2.90;91.10;;;;;;5027986;28;20036;-71
2021/03/12 04:33:27;;;;;;;51.35;29.80;;;2.90;91.20;;;;;;5026438;28;20033;-70
2021/03/12 04:35:53;;;;;;;55.25;31.50;;;2.90;91.00;;;;;;5027349;28;20490;-69
2021/03/12 04:38:19;;;;;;;;;;;2.80;91.10;;;;;;5028452;28;20018;-71
2021/03/12 04:40:45;;;;;;;61.50;32.60;;;2.80;91.20;;;;;;5028168;28;20302;-70
2021/03/12 04:43:11;;;;;;;64.57;37.08;;;2.80;91.30;;;;;;5027518;28;20470;-71
2021/03/12 04:45:36;;;;;;;;;;;2.80;91.40;;;;;;5028764;28;20033;-71
2021/03/12 04:48:03;;;;;;;54.88;31.40;;;2.70;91.50;;;;;;5027282;28;19915;-71
2021/03/12 04:50:29;;;;;;;56.92;33.65;;;2.80;91.70;;;;;;5027632;28;20037;-71
2021/03/12 04:52:56;;;;;;;56.63;33.55;;;3.00;91.60;;;;;;5027163;28;20524;-71
2021/03/12 04:55:22;;;;;;;60.53;34.45;;;2.90;91.50;;;;;;5027796;28;20028;-71
2021/03/12 04:57:50;;;;;;;55.88;32.80;;;2.90;91.60;;;;;;5027556;28;20037;-71
2021/03/12 05:00:18;;;;;;;59.17;32.30;;;2.80;91.70;;;;;;5027620;28;20504;-70
2021/03/12 05:02:44;;;;;;;55.92;30.42;;;2.90;91.80;;;;;;5026523;28;20383;-71
2021/03/12 05:05:11;;;;;;;53.63;31.55;;;3.10;91.60;;;;;;5026762;28;20025;-71
2021/03/12 05:07:38;;;;;;;53.78;30.63;;;3.10;91.50;;;;;;5026075;28;20073;-70
2021/03/12 05:10:06;;;;;;;53.72;30.90;;;3.10;91.50;;;;;;5025748;28;20021;-70
2021/03/12 05:12:33;;;;;;;50.72;32.15;;;3.10;91.50;;;;;;5026092;28;20100;-70
2021/03/12 05:14:59;;;;;;;53.90;31.10;;;3.10;91.50;;;;;;5025518;28;20033;-71
2021/03/12 05:17:25;;;;;;;56.47;33.92;;;3.10;91.30;;;;;;5027172;28;20034;-71
2021/03/12 05:19:50;;;;;;;;;;;3.20;91.30;;;;;;5027257;28;20446;-69
2021/03/12 05:22:17;;;;;;;57.80;33.97;;;3.20;91.30;;;;;;5026946;28;19909;-70
2021/03/12 05:24:42;;;;;;;55.88;30.92;;;3.30;91.10;;;;;;5027015;28;20121;-71
2021/03/12 05:27:08;;;;;;;;;;;3.30;91.10;;;;;;5027095;28;20100;-71
2021/03/12 05:29:34;;;;;;;76.55;38.10;;;3.30;91.10;;;;;;5027182;28;20333;-71
2021/03/12 05:32:00;;;;;;;77.82;37.65;;;3.30;90.90;;;;;;5027048;28;20025;-71
2021/03/12 05:34:26;;;;;;;;;;;3.40;91.00;;;;;;5025451;28;20095;-71
2021/03/12 05:36:52;;;;;;;94.05;47.08;;;3.40;91.10;;;;;;5026859;28;19920;-70
2021/03/12 05:39:19;;;;;;;84.95;41.25;;;3.50;90.90;;;;;;5026968;28;20504;-70
2021/03/12 05:41:47;;;;;;;48.00;27.48;;;3.50;90.50;;;;;;5025448;28;20084;-70
2021/03/12 05:44:12;;;;;;;58.15;27.30;;;3.70;89.50;;;;;;5027056;28;20117;-68
2021/03/12 05:46:38;;;;;;;;;;;3.70;89.20;;;;;;5027296;28;20449;-70
2021/03/12 05:49:04;;;;;;;68.75;39.28;;;3.70;90.00;;;;;;5025815;28;19927;-71
2021/03/12 05:51:33;;;;;;;;;;;3.70;90.30;;;;;;5027192;28;20029;-70
2021/03/12 05:53:59;;;;;;;81.70;41.22;;;3.70;90.40;;;;;;5026283;28;19999;-70
2021/03/12 05:56:25;;;;;;;;;;;3.70;90.70;;;;;;5027023;28;20112;-70
2021/03/12 05:58:51;;;;;;;71.78;36.47;;;3.70;90.80;;;;;;5026103;28;20428;-69
2021/03/12 06:01:16;;;;;;;72.53;40.75;;;3.70;90.70;;;;;;5026218;28;20037;-68
2021/03/12 06:03:44;;;;;;;76.35;43.33;;;3.80;90.40;;;;;;5026061;28;20467;-71
2021/03/12 06:06:10;;;;;;;77.85;44.10;;;3.80;90.50;;;;;;5026296;28;20018;-71
2021/03/12 06:08:36;;;;;;;91.43;48.97;;;3.80;90.60;;;;;;5024619;28;20191;-70
2021/03/12 06:11:03;;;;;;;;;;;3.90;90.60;;;;;;5026711;28;20112;-68
2021/03/12 06:13:29;;;;;;;88.35;48.00;;;3.90;90.50;;;;;;5025993;28;19916;-67
2021/03/12 06:15:54;;;;;;;105.45;59.25;;;3.90;90.50;;;;;;5025690;28;20034;-68
2021/03/12 06:18:26;;;;;;;103.07;57.83;;;4.00;90.50;;;;;;5025844;28;20033;-68
2021/03/12 06:20:52;;;;;;;134.43;72.45;;;4.10;90.80;;;;;;5025900;28;20138;-69
2021/03/12 06:23:38;;;;;;;116.70;61.40;;;4.20;90.90;;;;;;5024533;28;20037;-69
2021/03/12 06:26:04;;;;;;;135.88;72.70;;;4.30;90.70;;;;;;5024426;28;20033;-71
2021/03/12 06:28:30;;;;;;;;;;;4.40;90.50;;;;;;5025114;28;20025;-68
2021/03/12 06:30:56;;;;;;;98.10;52.92;;;4.60;90.20;;;;;;5025773;28;19905;-70
2021/03/12 06:33:31;;;;;;;77.88;44.95;;;4.90;90.00;;;;;;5025116;28;20577;-71
2021/03/12 06:35:58;;;;;;;66.18;38.58;;;5.10;88.00;;;;;;5025832;28;20533;-71
2021/03/12 06:38:24;;;;;;;60.28;35.85;;;5.20;87.60;;;;;;5025818;28;20112;-71
2021/03/12 06:40:51;;;;;;;62.22;36.65;;;5.40;86.90;;;;;;5028221;28;20136;-71
2021/03/12 06:43:24;;;;;;;80.97;47.35;;;5.50;86.10;;;;;;5029689;28;20418;-71
2021/03/12 06:45:50;;;;;;;71.60;41.05;;;5.50;86.30;;;;;;5029984;28;20036;-71
2021/03/12 06:48:21;;;;;;;;;;;5.50;85.40;;;;;;5029833;28;20120;-71
2021/03/12 06:50:47;;;;;;;57.50;32.92;;;5.50;84.90;;;;;;5028477;28;20225;-70
2021/03/12 06:53:23;;;;;;;;;;;5.40;84.00;;;;;;5030109;28;20525;-71
2021/03/12 06:55:49;;;;;;;50.17;28.90;;;5.50;83.80;;;;;;5029609;28;20016;-71
2021/03/12 06:58:15;;;;;;;;;;;5.70;84.30;;;;;;5030298;28;20104;-69
2021/03/12 07:00:41;;;;;;;45.60;26.23;;;6.00;83.40;;;;;;5028903;28;20018;-71
2021/03/12 07:03:25;;;;;;;;;;;6.30;82.40;;;;;;5029960;28;20037;-71
2021/03/12 07:05:59;;;;;;;30.00;19.70;;;6.40;80.80;;;;;;5029441;28;20393;-71
2021/03/12 07:08:38;;;;;;;34.40;18.95;;;6.40;79.00;;;;;;5028397;28;20029;-71
2021/03/12 07:11:17;;;;;;;27.92;17.40;;;6.50;79.20;;;;;;5029310;28;20100;-71
2021/03/12 07:13:43;;;;;;;29.10;17.88;;;6.90;78.10;;;;;;5029355;28;20490;-71
2021/03/12 07:16:09;;;;;;;;;;;7.50;77.20;;;;;;5029587;28;20056;-69
2021/03/12 07:18:34;;;;;;;27.23;16.52;;;8.50;74.40;;;;;;5027726;28;20370;-71
2021/03/12 07:21:01;;;;;;;;;;;9.30;72.20;;;;;;5029312;28;20462;-72
2021/03/12 07:23:28;;;;;;;27.23;16.43;;;10.10;68.10;;;;;;5029699;28;19919;-72
2021/03/12 07:25:54;;;;;;;21.80;15.20;;;11.10;66.60;;;;;;5029157;28;20033;-71
2021/03/12 07:28:23;;;;;;;26.05;16.63;;;12.10;62.70;;;;;;5029297;28;20040;-72
2021/03/12 07:30:51;;;;;;;32.38;16.02;;;12.70;60.20;;;;;;5027744;28;20499;-72
2021/03/12 07:33:24;;;;;;;25.13;15.95;;;13.40;58.50;;;;;;5028766;28;20091;-72
2021/03/12 07:35:51;;;;;;;20.13;15.02;;;14.10;55.00;;;;;;5027808;28;20021;-72
2021/03/12 07:38:18;;;;;;;18.48;14.07;;;14.60;54.30;;;;;;5028941;28;20037;-72
2021/03/12 07:40:44;;;;;;;23.50;13.50;;;15.00;52.00;;;;;;5027294;28;20038;-72
2021/03/12 07:43:12;;;;;;;26.33;15.05;;;15.30;50.50;;;;;;5029025;28;20071;-72
2021/03/12 07:45:40;;;;;;;22.15;14.90;;;15.80;48.80;;;;;;5027685;28;20018;-72
2021/03/12 07:48:06;;;;;;;24.00;13.90;;;16.10;48.30;;;;;;5027061;28;20041;-72
2021/03/12 07:50:38;;;;;;;22.88;15.45;;;16.50;46.50;;;;;;5027091;28;20033;-72
2021/03/12 07:53:05;;;;;;;21.83;15.63;;;16.30;46.30;;;;;;5027526;28;20498;-72
2021/03/12 07:55:39;;;;;;;23.60;15.13;;;15.50;48.30;;;;;;5028436;28;20695;-71
2021/03/12 07:58:06;;;;;;;23.42;16.23;;;14.40;50.50;;;;;;5028825;28;20030;-71
2021/03/12 08:00:57;;;;;;;26.65;16.00;;;13.30;54.00;;;;;;5028910;28;20434;-71
2021/03/12 08:03:30;;;;;;;26.55;15.77;;;12.30;57.20;;;;;;5026970;28;20071;-71
2021/03/12 08:05:56;;;;;;;23.38;15.65;;;11.50;61.30;;;;;;5029104;28;20026;-71
2021/03/12 08:08:32;;;;;;;;;;;11.00;64.10;;;;;;5028890;28;20032;-71
2021/03/12 08:11:44;;;;;;;23.75;15.65;;;10.60;66.50;;;;;;5027072;28;19908;-71
2021/03/12 08:14:19;;;;;;;27.08;16.83;;;10.00;70.20;;;;;;5028122;28;20041;-71
2021/03/12 08:17:11;;;;;;;23.52;16.67;;;9.80;71.40;;;;;;5027011;28;20063;-71
2021/03/12 08:19:38;;;;;;;27.10;17.77;;;9.90;72.70;;;;;;5027787;28;20080;-71
2021/03/12 08:22:28;;;;;;;28.05;16.25;;;10.60;72.00;;;;;;5028396;28;20404;-71
2021/03/12 08:24:56;;;;;;;22.88;15.07;;;11.80;67.70;;;;;;5026318;28;20128;-72
2021/03/12 08:27:50;;;;;;;25.25;15.45;;;12.60;64.50;;;;;;5028246;28;20025;-72
2021/03/12 08:30:24;;;;;;;21.20;14.32;;;13.60;62.00;;;;;;5027919;28;20113;-72
2021/03/12 08:32:54;;;;;;;20.67;14.57;;;14.60;58.80;;;;;;5027560;28;20745;-72
2021/03/12 08:35:40;;;;;;;20.50;14.48;;;15.50;55.90;;;;;;5028262;28;20505;-72
2021/03/12 08:38:29;;;;;;;22.92;14.80;;;16.30;53.00;;;;;;5027694;28;20049;-72
2021/03/12 08:41:00;;;;;;;19.83;14.00;;;16.40;53.20;;;;;;5027322;28;20020;-72
2021/03/12 08:43:28;;;;;;;19.23;13.52;;;16.60;52.90;;;;;;5027703;28;20069;-72
2021/03/12 08:45:56;;;;;;;19.17;10.77;;;17.00;51.50;;;;;;5027971;28;20476;-72
2021/03/12 08:48:25;;;;;;;15.95;10.45;;;17.10;50.90;;;;;;5027190;28;20564;-72
2021/03/12 08:51:05;;;;;;;18.33;10.13;;;17.40;49.30;;;;;;5027223;28;20631;-72
2021/03/12 08:53:36;;;;;;;15.10;9.63;;;17.40;48.60;;;;;;5026418;28;20029;-72
2021/03/12 08:56:04;;;;;;;16.08;10.60;;;17.20;49.20;;;;;;5026137;28;20196;-71
2021/03/12 08:58:34;;;;;;;17.45;10.57;;;17.30;49.80;;;;;;5025803;28;20108;-71
2021/03/12 09:01:14;;;;;;;20.13;11.32;;;17.40;50.50;;;;;;5027346;28;20167;-72
2021/03/12 09:03:46;;;;;;;17.20;9.73;;;17.30;50.50;;;;;;5026239;28;20521;-72
2021/03/12 09:06:14;;;;;;;13.43;9.20;;;17.10;49.80;;;;;;5025823;28;20037;-72
2021/03/12 09:08:42;;;;;;;13.02;9.27;;;17.10;49.60;;;;;;5027523;28;20104;-71
2021/03/12 09:11:13;;;;;;;9.95;6.82;;;17.00;50.00;;;;;;5027299;28;20224;-72
2021/03/12 09:13:41;;;;;;;8.65;5.90;;;16.50;49.50;;;;;;5026960;28;20033;-71
2021/03/12 09:16:08;;;;;;;8.65;5.50;;;16.00;50.30;;;;;;5027276;28;20502;-72
2021/03/12 09:18:35;;;;;;;8.55;5.28;;;15.80;50.80;;;;;;5027023;28;20114;-72
2021/03/12 09:21:07;;;;;;;8.02;4.55;;;16.00;51.10;;;;;;5026976;28;20029;-72
2021/03/12 09:23:50;;;;;;;6.63;4.30;;;16.40;48.90;;;;;;5027027;28;20030;-71
2021/03/12 09:26:18;;;;;;;7.03;4.68;;;16.10;47.90;;;;;;5025575;28;20080;-71
2021/03/12 09:28:46;;;;;;;5.78;3.50;;;16.00;49.00;;;;;;5027200;28;20036;-71
2021/03/12 09:31:13;;;;;;;9.57;3.90;;;16.50;46.60;;;;;;5026912;28;20036;-71
2021/03/12 09:33:51;;;;;;;5.75;2.78;;;17.10;46.50;;;;;;5026287;28;20116;-71
2021/03/12 09:36:23;;;;;;;7.50;3.80;;;17.70;44.20;;;;;;5026574;28;20044;-72
2021/03/12 09:38:50;;;;;;;8.20;3.30;;;18.10;44.50;;;;;;5024799;28;20030;-73
2021/03/12 09:41:21;;;;;;;4.38;2.67;;;18.30;41.80;;;;;;5025325;28;20033;-72
2021/03/12 09:44:17;;;;;;;3.90;2.28;;;18.30;41.10;;;;;;5026993;28;20025;-72
2021/03/12 09:46:51;;;;;;;4.40;2.05;;;18.90;39.20;;;;;;5025767;28;20506;-71
2021/03/12 09:49:17;;;;;;;3.83;2.42;;;19.30;36.40;;;;;;5026634;28;20124;-71
2021/03/12 09:51:46;;;;;;;3.40;2.17;;;18.50;38.40;;;;;;5026387;28;20076;-70
2021/03/12 09:54:15;;;;;;;3.38;1.98;;;18.50;38.90;;;;;;5026700;28;20018;-71
2021/03/12 09:56:46;;;;;;;4.78;1.30;;;18.30;39.10;;;;;;5026689;28;20037;-72
2021/03/12 09:59:12;;;;;;;3.47;1.10;;;17.70;36.70;;;;;;5026300;28;20029;-72
2021/03/12 10:01:40;;;;;;;4.43;1.00;;;17.40;38.40;;;;;;5025561;28;20053;-72
2021/03/12 10:04:29;;;;;;;3.85;0.90;;;17.50;35.90;;;;;;5026203;28;20021;-72
2021/03/12 10:07:01;;;;;;;2.65;0.95;;;17.50;37.60;;;;;;5025272;28;20071;-71
2021/03/12 10:09:29;;;;;;;2.30;1.25;;;17.50;38.50;;;;;;5024932;28;20091;-71
2021/03/12 10:11:56;;;;;;;3.42;1.10;;;17.00;37.90;;;;;;5026489;28;20391;-71
2021/03/12 10:14:28;;;;;;;5.97;2.90;;;16.30;39.30;;;;;;5024693;28;20278;-71
2021/03/12 10:17:26;;;;;;;9.32;4.30;;;16.30;40.30;;;;;;5025489;28;20049;-70
2021/03/12 10:20:20;;;;;;;3.33;1.13;;;16.30;39.90;;;;;;5024922;28;20505;-71
2021/03/12 10:22:52;;;;;;;2.38;1.27;;;15.80;40.50;;;;;;5025831;28;20056;-72
2021/03/12 10:25:27;;;;;;;6.75;1.40;;;15.20;41.20;;;;;;5026137;28;20108;-70
2021/03/12 10:27:58;;;;;;;3.35;1.30;;;14.60;43.60;;;;;;5026404;28;20578;-71
2021/03/12 10:30:54;;;;;;;5.07;1.38;;;14.40;44.00;;;;;;5024564;28;20120;-71
2021/03/12 10:33:22;;;;;;;4.00;1.10;;;14.00;45.50;;;;;;5021774;28;20040;-69
2021/03/12 10:35:50;;;;;;;3.70;1.25;;;13.60;47.70;;;;;;5024967;28;20136;-71
2021/03/12 10:38:23;;;;;;;1.48;0.77;;;13.60;48.00;;;;;;5024580;28;20034;-71
2021/03/12 10:40:56;;;;;;;1.60;0.40;;;13.50;46.90;;;;;;5025640;28;20029;-70
2021/03/12 10:43:27;;;;;;;4.13;0.35;;;13.60;44.40;;;;;;5024658;28;20025;-71
2021/03/12 10:45:58;;;;;;;2.13;0.60;;;13.50;43.30;;;;;;5023872;28;20033;-71
2021/03/12 10:48:26;;;;;;;2.83;0.90;;;13.50;44.50;;;;;;5024016;28;20045;-71
2021/03/12 10:50:53;;;;;;;0.68;0.20;;;13.40;45.00;;;;;;5025654;28;20472;-71
2021/03/12 10:53:19;;;;;;;0.77;0.22;;;13.20;43.70;;;;;;5025663;28;20029;-70
2021/03/12 10:55:46;;;;;;;;;;;12.90;43.20;;;;;;5024549;28;20029;-71
2021/03/12 10:58:29;;;;;;;1.63;0.50;;;12.60;43.80;;;;;;5026028;28;19913;-71
2021/03/12 11:01:10;;;;;;;1.80;0.50;;;12.40;43.80;;;;;;5025310;28;20033;-71
2021/03/12 11:03:37;;;;;;;1.45;0.70;;;12.30;44.60;;;;;;5025720;28;20409;-71
2021/03/12 11:06:03;;;;;;;1.65;0.30;;;12.30;46.30;;;;;;5025554;28;20417;-71
2021/03/12 11:08:29;;;;;;;1.00;0.30;;;12.60;45.30;;;;;;5025831;28;20442;-71
2021/03/12 11:10:56;;;;;;;1.30;0.50;;;12.80;45.40;;;;;;5024278;28;20405;-72
2021/03/12 11:13:22;;;;;;;2.58;0.30;;;13.00;44.50;;;;;;5024251;28;20024;-71
2021/03/12 11:15:48;;;;;;;3.03;0.30;;;13.30;44.70;;;;;;5025293;28;20820;-71
2021/03/12 11:18:14;;;;;;;1.38;0.28;;;13.50;44.80;;;;;;5025817;28;20032;-71
2021/03/12 11:20:40;;;;;;;;;;;13.50;44.50;;;;;;5026208;28;20037;-71
2021/03/12 11:23:05;;;;;;;4.15;0.30;;;13.70;44.20;;;;;;5025639;28;20006;-70
2021/03/12 11:25:31;;;;;;;;;;;13.70;43.50;;;;;;5025938;28;20053;-71
2021/03/12 11:27:57;;;;;;;1.00;0.30;;;13.60;43.70;;;;;;5029607;28;20396;-71
2021/03/12 11:30:22;;;;;;;;;;;13.60;43.40;;;;;;5029638;28;20037;-71
2021/03/12 11:32:48;;;;;;;1.52;0.30;;;13.70;43.50;;;;;;5028554;28;20388;-72
2021/03/12 11:35:14;;;;;;;;;;;13.60;43.40;;;;;;5029938;28;20091;-71
2021/03/12 11:37:40;;;;;;;1.95;0.20;;;13.60;44.30;;;;;;5029266;28;19916;-72
2021/03/12 11:40:06;;;;;;;;;;;13.50;43.40;;;;;;5029331;28;20556;-72
2021/03/12 11:42:32;;;;;;;0.80;0.30;;;13.40;43.50;;;;;;5029207;28;19908;-71
2021/03/12 11:44:59;;;;;;;1.35;0.20;;;13.20;44.50;;;;;;5029044;28;20018;-71
2021/03/12 11:47:25;;;;;;;2.78;0.80;;;13.00;44.60;;;;;;5028465;28;20120;-71
2021/03/12 11:49:51;;;;;;;3.25;1.10;;;13.00;41.60;;;;;;5028905;28;20081;-71
2021/03/12 11:52:17;;;;;;;9.38;3.30;;;13.00;43.20;;;;;;5028598;28;20061;-69
2021/03/12 11:54:43;;;;;;;1.58;0.60;;;13.00;42.60;;;;;;5027194;28;20034;-69
2021/03/12 11:57:08;;;;;;;;;;;13.00;42.80;;;;;;5029323;28;20029;-69
2021/03/12 11:59:34;;;;;;;2.88;0.30;;;13.20;40.40;;;;;;5027669;28;19927;-69
2021/03/12 12:02:02;;;;;;;;;;;13.20;40.20;;;;;;5028508;28;20030;-69
2021/03/12 12:04:27;;;;;;;0.95;0.30;;;13.10;41.80;;;;;;5028905;28;19909;-70
2021/03/12 12:06:53;;;;;;;;;;;13.10;41.40;;;;;;5029112;28;20055;-69
2021/03/12 12:09:19;;;;;;;2.13;0.28;;;13.10;41.70;;;;;;5028408;28;19972;-70
2021/03/12 12:11:45;;;;;;;1.38;0.30;;;13.00;40.00;;;;;;5028375;28;20038;-70
2021/03/12 12:14:11;;;;;;;;;;;13.00;38.60;;;;;;5029101;28;20145;-70
2021/03/12 12:16:36;;;;;;;2.15;0.30;;;13.10;39.20;;;;;;5027572;28;20648;-70
2021/03/12 12:19:07;;;;;;;;;;;13.00;40.80;;;;;;5028764;28;20029;-70
2021/03/12 12:21:34;;;;;;;1.90;0.30;;;13.00;40.40;;;;;;5026554;28;19909;-70
2021/03/12 12:23:59;;;;;;;4.55;0.30;;;13.10;41.40;;;;;;5028710;28;20072;-69
2021/03/12 12:26:25;;;;;;;;;;;13.20;40.20;;;;;;5028337;28;20057;-70
2021/03/12 12:28:50;;;;;;;1.80;0.40;;;13.20;39.30;;;;;;5027032;28;19909;-70
2021/03/12 12:31:16;;;;;;;;;;;13.30;38.70;;;;;;5028052;28;20413;-70
2021/03/12 12:33:44;;;;;;;1.30;0.30;;;13.40;38.30;;;;;;5026714;28;20374;-69
2021/03/12 12:36:10;;;;;;;4.47;0.30;;;13.40;37.80;;;;;;5028016;28;20033;-69
2021/03/12 12:38:36;;;;;;;3.45;0.20;;;13.40;37.60;;;;;;5028100;28;20029;-69
2021/03/12 12:41:01;;;;;;;;;;;13.30;37.50;;;;;;5026586;28;20048;-69
2021/03/12 12:43:27;;;;;;;3.03;0.20;;;13.30;37.60;;;;;;5027406;28;19917;-70
2021/03/12 12:45:52;;;;;;;;;;;13.20;37.10;;;;;;5027996;28;20041;-69
2021/03/12 12:48:18;;;;;;;0.50;0.20;;;13.20;37.50;;;;;;5027404;28;19917;-70
2021/03/12 12:50:44;;;;;;;;;;;13.20;37.20;;;;;;5028371;28;20029;-72
2021/03/12 12:53:09;;;;;;;2.13;0.60;;;13.20;37.30;;;;;;5027431;28;19978;-72
2021/03/12 12:55:35;;;;;;;;;;;13.10;38.70;;;;;;5027801;28;20030;-72
2021/03/12 12:58:00;;;;;;;1.73;0.70;;;13.20;38.10;;;;;;5027893;28;19913;-71
2021/03/12 13:00:26;;;;;;;;;;;13.30;38.70;;;;;;5027491;28;20059;-70
2021/03/12 13:02:52;;;;;;;2.70;0.30;;;13.40;38.90;;;;;;5027578;28;20213;-70